Latest Weather Observations for Mount Keith

IDW60801

Issued at 5:23 am WST Tuesday 6 December 2022 (issued every 10 minutes, with the page automatically refreshed every 10 minutes)

About weather observations | Map of weather stations | Latest weather observations for WA | Other Formats
Station Details ID: 512019 Name: MOUNT KEITH Lat: -27.29 Lon: 120.55 Height: 542.33 m
Data from the previous 72 hours. | See also: Recent months for locations in Western Australia
Date/Time
WST
Temp
°C
App
Temp
°C
Dew
Point
°C
Rel
Hum
%
Delta-T
°C
Wind Press
QNH
hPa
Press
MSL
hPa
Rain since
9am
mm
Dir  Spd
km/h
Gust
km/h
Spd
kts
Gust
kts
06/05:00am 23.3 19.5 1.6 24 10.5 WNW 11 13 6 7 1007.9 1003.8 0.0
06/04:30am 23.5 20.1 1.8 24 10.5 WNW 9 11 5 6 1007.8 1003.7 0.0
06/04:00am 23.9 20.4 1.5 23 10.8 WNW 9 11 5 6 1007.6 1003.4 0.0
06/03:30am 24.4 20.9 1.3 22 11.1 WNW 9 11 5 6 1007.6 1003.4 0.0
06/03:00am 25.2 21.4 2.0 22 11.4 WNW 11 13 6 7 1007.6 1003.4 0.0
06/02:30am 25.1 22.3 1.9 22 11.4 W 6 7 3 4 1007.7 1003.5 0.0
06/02:00am 25.8 22.7 1.2 20 12.0 W 7 9 4 5 1007.7 1003.5 0.0
06/01:30am 27.4 24.2 1.0 18 12.9 W 7 9 4 5 1007.8 1003.7 0.0
06/01:00am 28.8 24.8 0.5 16 13.9 W 11 15 6 8 1007.9 1003.8 0.0
06/12:30am 29.5 24.3 0.2 15 14.4 WSW 17 22 9 12 1008.0 1003.9 0.0
06/12:00am 30.3 24.8 0.8 15 14.7 WSW 19 20 10 11 1008.2 1004.1 0.0
 
Date/Time
WST
Temp
°C
App
Temp
°C
Dew
Point
°C
Rel
Hum
%
Delta-T
°C
Wind Press
QNH
hPa
Press
MSL
hPa
Rain since
9am
mm
Dir  Spd
km/h
Gust
km/h
Spd
kts
Gust
kts
05/11:30pm 31.1 25.4 0.5 14 15.2 WSW 20 26 11 14 1008.4 1004.3 0.0
05/11:00pm 32.0 26.2 0.2 13 15.9 WSW 20 26 11 14 1008.6 1004.5 0.0
05/10:30pm 32.4 27.3 0.5 13 16.0 WSW 17 22 9 12 1008.7 1004.6 0.0
05/10:00pm 32.5 28.1 0.6 13 16.1 WSW 13 17 7 9 1008.9 1004.8 0.0
05/09:30pm 33.0 28.7 0.9 13 16.3 WSW 13 17 7 9 1008.9 1004.8 0.0
05/09:00pm 33.8 29.6 1.6 13 16.6 WSW 13 17 7 9 1008.7 1004.6 0.0
05/08:30pm 34.8 30.1 1.2 12 17.3 WSW 15 20 8 11 1008.5 1004.4 0.0
05/08:00pm 35.5 30.4 0.6 11 17.9 W 17 20 9 11 1008.3 1004.2 0.0
05/07:30pm 36.5 31.1 1.3 11 18.3 W 19 24 10 13 1007.9 1003.8 0.0
05/07:00pm 37.2 31.5 0.5 10 19.0 W 20 32 11 17 1007.5 1003.3 0.0
05/06:30pm 38.0 30.9 1.1 10 19.3 W 28 37 15 20 1007.0 1002.9 0.0
05/06:00pm 38.8 31.9 0.3 9 20.1 W 26 39 14 21 1006.7 1002.6 0.0
05/05:30pm 39.6 31.7 0.9 9 20.4 W 32 44 17 24 1006.3 1002.2 0.0
05/05:00pm 39.8 32.3 1.0 9 20.6 W 30 57 16 31 1006.3 1002.2 0.0
05/04:31pm 40.5 33.0 1.5 9 20.8 W 30 46 16 25 1006.1 1002.0 0.0
05/04:30pm 40.3 32.8 1.4 9 20.7 W 30 43 16 23 1006.1 1002.0 0.0
05/04:00pm 40.7 33.7 1.7 9 21.0 WSW 28 50 15 27 1006.3 1002.2 0.0
05/03:34pm 41.1 34.1 2.0 9 21.1 W 28 46 15 25 1006.4 1002.3 0.0
05/03:30pm 41.0 34.8 1.9 9 21.1 W 24 44 13 24 1006.3 1002.2 0.0
05/03:00pm 40.8 33.8 1.7 9 21.0 W 28 41 15 22 1006.6 1002.5 0.0
05/02:30pm 40.2 32.7 1.3 9 20.7 WNW 30 50 16 27 1007.0 1002.9 0.0
05/02:24pm 40.8 33.8 1.7 9 21.0 WNW 28 50 15 27 1006.9 1002.8 0.0
05/02:00pm 41.1 34.5 2.0 9 21.2 WNW 26 43 14 23 1007.4 1003.2 0.0
05/01:30pm 41.2 35.6 3.5 10 20.8 W 22 39 12 21 1007.8 1003.7 0.0
05/01:00pm 40.8 34.8 3.2 10 20.7 WNW 24 39 13 21 1008.2 1004.1 0.0
05/12:30pm 39.4 34.2 3.5 11 19.6 WNW 20 33 11 18 1008.5 1004.4 0.0
05/12:00pm 38.2 33.3 5.0 13 18.5 NW 20 33 11 18 1009.1 1005.0 0.0
05/11:30am 38.8 35.1 6.5 14 18.4 WNW 15 22 8 12 1009.7 1005.6 0.0
05/11:00am 38.8 34.4 6.5 14 18.5 WNW 19 30 10 16 1010.1 1006.0 0.0
05/10:30am 38.2 35.3 8.0 16 17.6 WSW 13 24 7 13 1010.4 1006.3 0.0
05/10:00am 36.7 34.5 9.3 19 16.2 N 11 19 6 10 1010.8 1006.7 0.0
05/09:30am 35.3 33.0 10.4 22 14.8 N 13 20 7 11 1011.2 1007.1 0.0
05/09:00am 34.0 31.2 9.9 23 14.2 NNE 15 20 8 11 1011.4 1007.3 0.0
05/08:30am 32.8 30.1 10.2 25 13.3 NE 15 22 8 12 1011.6 1007.5 0.0
05/08:00am 32.0 30.0 10.1 26 12.8 ENE 11 17 6 9 1011.7 1007.6 0.0
05/07:30am 30.8 28.1 10.2 28 12.0 ENE 15 22 8 12 1011.7 1007.6 0.0
05/07:00am 30.5 27.5 9.4 27 12.1 ENE 15 20 8 11 1011.5 1007.4 0.0
05/06:30am 30.0 27.8 9.5 28 11.8 E 11 17 6 9 1011.2 1007.1 0.0
05/06:00am 28.2 26.7 9.0 30 10.9 ESE 7 11 4 6 1010.9 1006.8 0.0
05/05:30am 26.4 24.9 8.4 32 10.0 S 6 7 3 4 1010.7 1006.6 0.0
05/05:00am 26.0 24.0 8.5 33 9.7 SE 9 13 5 7 1010.4 1006.3 0.0
05/04:30am 25.8 25.5 8.8 34 9.5 CALM 0 0 0 0 1010.3 1006.2 0.0
05/04:00am 26.9 25.3 8.8 32 10.1 S 7 9 4 5 1010.1 1006.0 0.0
05/03:30am 26.9 25.9 8.8 32 10.1 S 4 7 2 4 1009.8 1005.7 0.0
05/03:00am 27.3 25.7 8.7 31 10.4 ESE 7 9 4 5 1009.4 1005.2 0.0
05/02:30am 28.4 26.0 8.7 29 11.1 E 11 13 6 7 1009.3 1005.1 0.0
05/02:00am 28.9 26.1 8.6 28 11.4 E 13 17 7 9 1009.5 1005.4 0.0
05/01:30am 29.5 27.1 8.5 27 11.8 E 11 13 6 7 1009.5 1005.4 0.0
05/01:00am 29.9 28.2 8.3 26 12.2 E 7 11 4 6 1009.6 1005.5 0.0
05/12:30am 31.0 28.1 8.1 24 12.9 ESE 13 19 7 10 1009.9 1005.8 0.0
05/12:00am 31.1 29.4 8.2 24 13.0 ESE 7 11 4 6 1010.1 1006.0 0.0
 
Date/Time
WST
Temp
°C
App
Temp
°C
Dew
Point
°C
Rel
Hum
%
Delta-T
°C
Wind Press
QNH
hPa
Press
MSL
hPa
Rain since
9am
mm
Dir  Spd
km/h
Gust
km/h
Spd
kts
Gust
kts
04/11:30pm 30.9 28.7 8.0 24 12.9 SE 9 11 5 6 1010.3 1006.2 0.0
04/11:00pm 30.6 28.5 8.3 25 12.6 ESE 9 9 5 5 1010.4 1006.3 0.0
04/10:30pm 31.5 29.3 7.9 23 13.3 ESE 9 13 5 7 1010.5 1006.4 0.0
04/10:00pm 32.2 29.2 7.8 22 13.8 ESE 13 17 7 9 1010.4 1006.3 0.0
04/09:30pm 32.9 29.9 7.7 21 14.3 ESE 13 17 7 9 1010.4 1006.3 0.0
04/09:00pm 33.7 29.9 7.6 20 14.8 ESE 17 24 9 13 1010.1 1006.0 0.0
04/08:30pm 34.3 30.1 7.4 19 15.2 ESE 19 24 10 13 1009.9 1005.8 0.0
04/08:00pm 34.8 30.3 7.0 18 15.7 SE 20 28 11 15 1009.6 1005.5 0.0
04/07:30pm 35.5 31.3 7.6 18 15.9 SSE 19 26 10 14 1009.4 1005.2 0.0
04/07:00pm 36.2 31.4 7.3 17 16.5 SSE 22 30 12 16 1009.0 1004.9 0.0
04/06:30pm 36.9 30.9 7.0 16 17.0 SSE 28 41 15 22 1008.6 1004.5 0.0
04/06:00pm 37.8 33.2 6.7 15 17.8 SE 20 35 11 19 1008.2 1004.1 0.0
04/05:30pm 38.8 33.6 5.4 13 18.7 SSE 22 28 12 15 1008.0 1003.9 0.0
04/05:00pm 39.0 35.0 6.7 14 18.5 SSE 17 28 9 15 1007.9 1003.8 0.0
04/04:30pm 39.0 34.6 6.7 14 18.5 SSE 19 30 10 16 1007.8 1003.7 0.0
04/04:00pm 39.7 35.0 5.0 12 19.5 SW 19 28 10 15 1007.9 1003.8 0.0
04/03:30pm 39.1 36.6 6.7 14 18.6 SW 9 24 5 13 1007.9 1003.8 0.0
04/03:00pm 39.7 36.0 6.1 13 19.2 W 15 35 8 19 1007.8 1003.7 0.0
04/02:30pm 39.4 35.2 5.9 13 19.0 SSE 17 22 9 12 1008.2 1004.1 0.0
04/02:00pm 38.4 33.9 6.2 14 18.3 S 19 30 10 16 1008.5 1004.4 0.0
04/01:30pm 39.7 35.2 6.1 13 19.1 SSW 19 30 10 16 1008.8 1004.7 0.0
04/01:00pm 38.1 34.2 7.0 15 17.9 SE 17 28 9 15 1009.1 1005.0 0.0
04/12:30pm 37.9 33.8 7.7 16 17.5 S 19 26 10 14 1009.5 1005.4 0.0
04/12:00pm 37.5 33.9 8.3 17 17.0 SSE 17 32 9 17 1009.8 1005.7 0.0
04/11:30am 37.6 33.6 8.4 17 17.0 S 19 28 10 15 1010.1 1006.0 0.0
04/11:00am 36.9 33.4 8.7 18 16.5 S 17 39 9 21 1010.1 1006.0 0.0
04/10:30am 36.1 32.2 8.8 19 15.9 SSE 19 37 10 20 1010.1 1006.0 0.0
04/10:00am 36.1 32.0 8.0 18 16.2 SSE 19 28 10 15 1010.3 1006.2 0.0
04/09:30am 35.0 31.5 7.1 18 15.8 SE 15 26 8 14 1010.2 1006.1 0.0
04/09:00am 34.4 30.8 8.2 20 15.1 SE 17 26 9 14 1010.1 1006.0 0.0
04/08:30am 33.3 29.6 8.0 21 14.4 ESE 17 24 9 13 1010.0 1005.9 0.0
04/08:00am 32.3 27.6 7.9 22 13.8 SE 22 30 12 16 1010.0 1005.9 0.0
04/07:30am 31.6 27.0 8.0 23 13.3 SE 22 30 12 16 1009.8 1005.7 0.0
04/07:00am 30.5 25.6 8.3 25 12.6 SE 24 33 13 18 1009.6 1005.5 0.0
04/06:30am 29.2 24.6 8.3 27 11.7 SSE 22 30 12 16 1009.6 1005.5 0.0
04/06:00am 28.3 24.1 7.5 27 11.5 S 19 26 10 14 1009.3 1005.1 0.0
04/05:30am 27.0 23.1 6.9 28 10.9 SSW 17 20 9 11 1008.6 1004.5 0.0
04/05:00am 26.9 23.6 6.3 27 11.1 SW 13 17 7 9 1008.5 1004.4 0.0
04/04:30am 27.8 24.5 6.6 26 11.5 SW 13 17 7 9 1007.9 1003.8 0.0
04/04:00am 28.7 25.8 6.7 25 12.0 SW 11 15 6 8 1007.8 1003.7 0.0
04/03:30am 29.1 25.8 6.5 24 12.3 SW 13 15 7 8 1007.7 1003.5 0.0
04/03:00am 29.7 27.2 6.4 23 12.7 SSW 9 13 5 7 1007.7 1003.5 0.0
04/02:30am 30.2 27.2 6.1 22 13.1 S 11 15 6 8 1007.7 1003.5 0.0
04/02:00am 31.1 27.6 5.5 20 13.9 S 13 17 7 9 1007.9 1003.8 0.0
04/01:30am 32.0 28.9 5.5 19 14.4 SSE 11 17 6 9 1008.3 1004.2 0.0
04/01:00am 31.2 27.7 7.0 22 13.5 N 15 26 8 14 1008.4 1004.3 0.0
04/12:30am 32.2 28.6 4.9 18 14.7 S 13 17 7 9 1007.7 1003.5 0.0
04/12:00am 31.4 28.0 5.8 20 14.0 ESE 13 17 7 9 1008.3 1004.2 0.0
 
Date/Time
WST
Temp
°C
App
Temp
°C
Dew
Point
°C
Rel
Hum
%
Delta-T
°C
Wind Press
QNH
hPa
Press
MSL
hPa
Rain since
9am
mm
Dir  Spd
km/h
Gust
km/h
Spd
kts
Gust
kts
03/11:30pm 33.3 28.8 4.1 16 15.6 S 17 24 9 13 1008.3 1004.2 0.0
03/11:00pm 33.9 29.5 4.6 16 15.9 SSW 17 26 9 14 1008.4 1004.3 0.0
03/10:30pm 31.6 29.4 8.0 23 13.3 SSE 9 11 5 6 1008.4 1004.3 0.0
03/10:00pm 33.0 30.5 4.7 17 15.3 S 7 7 4 4 1008.4 1004.3 0.0
03/09:30pm 34.0 30.9 3.7 15 16.2 SSW 9 13 5 7 1008.3 1004.2 0.0
03/09:00pm 34.9 31.0 3.5 14 16.8 SSW 13 17 7 9 1008.3 1004.2 0.0
03/08:30pm 35.1 31.4 2.6 13 17.1 S 11 17 6 9 1008.2 1004.1 0.0
03/08:00pm 36.5 32.7 3.7 13 17.8 SSW 13 17 7 9 1008.0 1003.9 0.0
03/07:30pm 36.2 33.1 3.4 13 17.6 S 9 11 5 6 1007.8 1003.7 0.0
03/07:00pm 37.0 33.4 2.9 12 18.3 ESE 11 13 6 7 1007.4 1003.2 0.0
03/06:30pm 37.9 34.6 2.4 11 19.0 ESE 9 11 5 6 1007.0 1002.9 0.0
03/06:00pm 39.8 37.1 2.5 10 20.2 SW 6 13 3 7 1006.9 1002.8 0.0
03/05:30pm 39.9 37.9 2.5 10 20.2 N 2 9 1 5 1006.6 1002.5 0.0
03/05:00pm 40.4 36.9 1.4 9 20.9 NNE 9 17 5 9 1006.3 1002.2 0.0
03/04:30pm 40.5 36.7 1.5 9 20.8 NE 11 17 6 9 1006.2 1002.1 0.0
03/04:00pm 39.9 36.6 2.5 10 20.3 NNE 9 15 5 8 1006.4 1002.3 0.0
03/03:30pm 39.5 35.0 2.2 10 20.0 N 15 20 8 11 1006.6 1002.5 0.0
03/03:00pm 39.3 36.3 2.1 10 20.0 N 7 13 4 7 1006.8 1002.7 0.0
03/02:30pm 39.6 35.9 2.3 10 20.1 E 11 15 6 8 1007.1 1003.0 0.0
03/02:00pm 40.0 36.7 2.6 10 20.3 N 9 15 5 8 1007.5 1003.3 0.0
03/01:30pm 40.7 37.3 1.7 9 20.9 NNW 9 20 5 11 1007.8 1003.7 0.0
03/01:00pm 40.0 36.5 1.1 9 20.6 NW 9 28 5 15 1008.2 1004.1 0.0
03/12:30pm 39.0 35.6 1.9 10 19.8 NNE 9 24 5 13 1008.5 1004.4 0.0
03/12:00pm 39.7 35.2 2.4 10 20.2 NNE 15 56 8 30 1008.8 1004.7 0.0
03/11:56am 39.5 35.4 2.2 10 20.0 SSE 13 56 7 30 1008.8 1004.7 0.0
03/11:30am 38.7 34.9 1.6 10 19.7 E 11 20 6 11 1009.3 1005.1 0.0
03/11:00am 38.6 34.4 1.6 10 19.6 ENE 13 26 7 14 1009.6 1005.5 0.0
03/10:30am 38.7 34.1 1.6 10 19.7 NE 15 24 8 13 1009.9 1005.8 0.0
03/10:00am 37.6 32.9 0.8 10 19.2 ENE 15 24 8 13 1010.0 1005.9 0.0
03/09:30am 37.1 32.7 0.4 10 18.9 SE 13 22 7 12 1010.2 1006.1 0.0
03/09:00am 36.6 31.4 0.1 10 18.7 ESE 17 24 9 13 1010.4 1006.3 0.0
03/08:30am 35.7 30.4 -0.6 10 18.3 ESE 17 24 9 13 1010.5 1006.4 0.0
03/08:00am 34.5 29.3 -0.2 11 17.5 E 17 24 9 13 1010.4 1006.3 0.0
03/07:30am 33.0 28.1 -0.2 12 16.5 ESE 15 22 8 12 1010.4 1006.3 0.0
03/07:00am 31.4 25.9 0.7 14 15.4 SE 19 28 10 15 1010.3 1006.2 0.0
03/06:30am 30.9 25.9 1.3 15 14.9 SSE 17 22 9 12 1009.9 1005.8 0.0
03/06:00am 28.8 24.7 2.1 18 13.5 S 13 17 7 9 1009.7 1005.6 0.0
03/05:30am 25.4 23.0 5.1 27 10.6 SSW 7 7 4 4 1009.5 1005.4 0.0

Other formats

Comma delimited format used in spreadsheet applications
http://www.bom.gov.au/fwo/IDW60801/IDW60801.99434.axf

JavaScript Object Notation format (JSON) in row-major order
http://www.bom.gov.au/fwo/IDW60801/IDW60801.99434.json

Data quality

Most of these data are generated automatically and are frequently updated. Quality checks on data are not normally performed. It is possible for incorrect values to appear. Refer to information at About Latest Weather Observations and please check the disclaimer before using these data.